Fort Chipewyan, Canada
Current Conditions -  °F | °C
As of 8:00 PM on Friday 21 Nov 2014 (Local Time) from CYPY Reporting Station
Clear Clear  
Wind Chill: -20°   Ceiling: Unl
Heat Index: -15°   Visibility: 9mi
Dew Point: -16°   Wind: 5mph
Humidity: 92%   Direction: 20°NNE
Pressure: 29.71"   Gusts: NA
Location:  58.71°N, 111.15°W
Report Text: CYPY 220300Z AUTO 02004KT 9SM CLR M15/M16 A2971 RMK SLP082
Loading
Personal Weather Stations






























Interactive Weather Map New forecast layout! Learn more

10-Day Weather Forecast

Advertisements
Track Severe Weather on mobile